AKST,Max TemperatureF,Mean TemperatureF,Min TemperatureF,Max Dew PointF,MeanDew PointF,Min DewpointF,Max Humidity, Mean Humidity, Min Humidity, Max Sea Level PressureIn, Mean Sea Level PressureIn, Min Sea Level PressureIn, Max VisibilityMiles, Mean VisibilityMiles, Min VisibilityMiles, Max Wind SpeedMPH, Mean Wind SpeedMPH, Max Gust SpeedMPH,PrecipitationIn, CloudCover, Events, WindDirDegrees
2011-11-1,44,42,39,39,37,36,87,82,71,29.98,29.63,29.39,10,9,3,34,16,45,0.00,8,,139
2011-11-2,39,34,28,36,24,7,93,67,37,29.93,29.67,29.55,10,10,4,18,8,26,0.00,3,,347
2011-11-3,35,30,26,18,11,5,69,45,33,30.17,30.10,29.99,10,10,10,14,9,20,0.00,0,,330
2011-11-4,33,32,30,30,26,16,93,80,51,29.93,29.58,29.41,10,6,1,16,9,21,0.00,8,,12
2011-11-5,37,34,30,34,31,28,100,89,87,29.76,29.61,29.44,10,7,1,6,2,,0.00,8,,346
2011-11-6,41,37,33,36,35,32,93,87,76,29.77,29.63,29.53,10,10,5,16,8,23,0.00,8,,134
2011-11-7,39,37,35,36,34,32,93,86,81,29.73,29.64,29.59,10,10,4,15,9,20,0.00,8,,139
2011-11-8,41,37,33,34,31,28,93,79,61,30.02,29.98,29.88,10,10,8,13,6,,0.00,6,,84
2011-11-9,37,36,33,34,33,28,93,90,81,30.01,29.88,29.77,10,9,0,8,4,,0.00,8,,28
2011-11-10,39,37,35,36,34,34,93,84,81,29.74,29.49,29.24,10,10,7,26,12,32,0.00,8,,136
2011-11-11,37,32,28,34,30,25,93,91,86,29.65,29.54,29.36,10,8,1,7,2,,0.00,2,,297
2011-11-12,41,38,35,36,33,30,93,84,75,29.10,28.87,28.62,10,9,2,28,15,38,0.00,8,,181
2011-11-13,39,36,33,32,30,27,87,79,65,29.38,29.21,29.04,10,8,1,16,10,25,0.00,8,,195
2011-11-14,33,32,30,30,29,27,93,86,75,29.67,29.58,29.44,10,6,1,18,4,30,0.00,7,,139
2011-11-15,37,28,19,30,25,16,100,82,70,29.83,29.75,29.64,10,9,1,21,7,28,0.00,6,,152
2011-11-16,42,35,28,30,28,19,93,78,57,29.49,29.25,29.12,10,8,1,28,19,37,0.00,8,,352
2011-11-17,28,22,17,19,12,7,74,62,51,30.02,29.76,29.32,10,10,5,17,12,23,0.00,3,,330
2011-11-18,21,16,10,10,8,5,85,70,58,30.03,29.97,29.90,10,10,10,7,5,,0.00,4,,337
2011-11-19,21,16,10,9,1,-6,85,55,33,29.94,29.92,29.89,10,10,10,10,4,17,0.00,2,,353
2011-11-20,19,10,0,12,4,-6,92,74,53,29.76,29.52,29.21,10,10,10,7,2,,0.00,6,,340
2011-11-21,39,30,21,32,25,19,93,85,70,28.91,28.86,28.78,10,6,0,15,2,22,0.00,8,,163
2011-11-22,39,34,30,30,29,27,93,84,61,28.98,28.83,28.77,10,7,0,23,7,28,0.00,8,,329
2011-11-23,33,28,24,28,23,19,93,73,56,28.99,28.94,28.86,10,8,0,23,11,28,0.00,7,,128
2011-11-24,30,22,14,25,20,10,93,84,64,29.29,29.05,28.90,10,7,0,12,5,23,0.00,6,,333
2011-11-25,35,25,15,30,23,12,93,84,65,29.66,29.57,29.44,10,8,1,23,7,33,0.00,8,,6
2011-11-26,35,32,28,30,29,25,93,88,75,29.47,29.43,29.37,10,9,3,9,5,,0.00,8,,335
2011-11-27,35,30,26,28,27,25,93,86,70,29.77,29.66,29.50,10,9,1,12,3,,0.00,7,,133
2011-11-28,37,36,35,34,33,30,93,87,81,29.71,29.55,29.40,10,9,5,30,20,43,0.00,8,,137
2011-11-29,39,34,30,34,32,28,93,89,81,30.41,30.15,29.87,10,8,1,12,4,,0.00,7,,124
2011-11-30,41,39,37,36,34,32,87,81,70,30.47,30.34,29.89,10,9,4,28,15,41,0.00,8,,135